Terminal Aerodrome Forecast
Issued by NWS

Home | Current Version | Previous Version | Text Only | Print | Product List | Glossary On
Versions: 1 2 3 4 5 6 7 8 9 10 11 12 13 14 15 16 17 18 19 20
113
FTUS43 KGRR 300540
TAFLAN
TAF
KLAN 300540Z 3006/3106 04012KT P6SM -SHRA OVC035
     FM301300 08016G23KT 2SM -RA BR OVC015
     FM301800 09015G22KT 2SM -SHRA BR OVC005=

USA.gov is the U.S. government's official web portal to all federal, state and local government web resources and services.